Time;durP1;ratioP1;P1;durP2;ratioP2;P2;SDS_P1;SDS_P2;PMS_P1;PMS_P2;Temp;Humidity;BMP_temperature;BMP_pressure;BME280_temperature;BME280_humidity;BME280_pressure;Samples;Min_cycle;Max_cycle;Signal;HPM_P1;HPM_P2
2023/05/08 00:00:47;;;;;;;;;;;17.00;82.70;;;;;;5072250;28;19948;-34
2023/05/08 00:03:12;;;;;;;;;;;17.00;82.70;;;;;;5072074;28;19915;-32
2023/05/08 00:05:40;;;;;;;;;;;17.00;82.70;;;;;;5072032;28;20488;-34
2023/05/08 00:08:05;;;;;;;;;;;17.00;82.70;;;;;;5070709;28;19959;-34
2023/05/08 00:10:31;;;;;;;;;;;17.00;82.70;;;;;;5071992;28;19909;-33
2023/05/08 00:12:56;;;;;;;;;;;17.00;82.70;;;;;;5072119;28;19909;-34
2023/05/08 00:15:22;;;;;;;;;;;17.00;82.80;;;;;;5071933;28;20391;-33
2023/05/08 00:17:47;;;;;;;;;;;17.00;82.80;;;;;;5071901;28;20360;-34
2023/05/08 00:20:13;;;;;;;;;;;16.90;82.70;;;;;;5071793;28;20279;-33
2023/05/08 00:22:38;;;;;;;;;;;16.90;82.70;;;;;;5071956;28;19915;-35
2023/05/08 00:25:04;;;;;;;;;;;16.90;82.70;;;;;;5071843;28;19915;-34
2023/05/08 00:27:33;;;;;;;;;;;16.90;82.80;;;;;;5071566;28;19921;-34
2023/05/08 00:29:58;;;;;;;;;;;16.90;82.80;;;;;;5071761;28;19912;-34
2023/05/08 00:32:24;;;;;;;;;;;16.90;82.80;;;;;;5071831;28;19908;-31
2023/05/08 00:34:50;;;;;;;;;;;16.90;82.80;;;;;;5071885;28;19919;-35
2023/05/08 00:37:16;;;;;;;;;;;16.90;82.70;;;;;;5071746;28;20271;-33
2023/05/08 00:39:41;;;;;;;;;;;16.90;82.70;;;;;;5071598;28;19916;-36
2023/05/08 00:42:06;;;;;;;;;;;16.90;82.70;;;;;;5071598;28;19909;-34
2023/05/08 00:44:32;;;;;;;;;;;16.90;82.80;;;;;;5071711;28;19996;-34
2023/05/08 00:46:58;;;;;;;;;;;16.80;82.70;;;;;;5071598;28;19916;-35
2023/05/08 00:49:23;;;;;;;;;;;16.80;82.70;;;;;;5071592;28;19939;-33
2023/05/08 00:51:51;;;;;;;;;;;16.80;82.70;;;;;;5071616;28;20038;-35
2023/05/08 00:54:17;;;;;;;;;;;16.80;82.70;;;;;;5070257;28;19913;-34
2023/05/08 00:56:42;;;;;;;;;;;16.80;82.80;;;;;;5071599;28;19914;-35
2023/05/08 00:59:09;;;;;;;;;;;16.70;82.70;;;;;;5071866;28;19909;-35
2023/05/08 01:01:35;;;;;;;;;;;16.70;82.80;;;;;;5071799;28;19958;-33
2023/05/08 01:04:02;;;;;;;;;;;16.70;82.80;;;;;;5071563;28;19909;-35
2023/05/08 01:06:27;;;;;;;;;;;16.60;82.90;;;;;;5071653;28;19947;-34
2023/05/08 01:08:53;;;;;;;;;;;16.60;82.90;;;;;;5070559;28;20323;-31
2023/05/08 01:11:23;;;;;;;;;;;16.60;83.00;;;;;;5070906;28;20011;-34
2023/05/08 01:14:08;;;;;;;;;;;16.50;83.00;;;;;;5070079;28;19999;-34
2023/05/08 01:16:33;;;;;;;;;;;16.50;83.10;;;;;;5071221;28;20123;-33
2023/05/08 01:19:02;;;;;;;;;;;16.50;83.10;;;;;;5071365;28;20003;-34
2023/05/08 01:21:28;;;;;;;;;;;16.40;83.10;;;;;;5071430;28;19912;-33
2023/05/08 01:24:11;;;;;;;;;;;16.40;83.20;;;;;;5071386;28;19931;-32
2023/05/08 01:26:50;;;;;;;;;;;16.30;83.20;;;;;;5074856;28;19920;-33
2023/05/08 01:29:35;;;;;;;;;;;16.30;83.30;;;;;;5074801;28;19909;-34
2023/05/08 01:32:00;;;;;;;;;;;16.20;83.30;;;;;;5074928;28;20428;-34
2023/05/08 01:34:28;;;;;;;;;;;16.20;83.40;;;;;;5074604;28;19995;-32
2023/05/08 01:36:58;;;;;;;;;;;16.10;83.40;;;;;;5074599;28;19912;-33
2023/05/08 01:39:43;;;;;;;;;;;16.10;83.40;;;;;;5074885;28;19908;-33
2023/05/08 01:42:23;;;;;;;;;;;16.10;83.40;;;;;;5074743;28;20364;-34
2023/05/08 01:44:53;;;;;;;;;;;16.00;83.40;;;;;;5074984;28;20383;-34
2023/05/08 01:47:21;;;;;;;;;;;16.00;83.40;;;;;;5074645;28;19912;-34
2023/05/08 01:49:48;;;;;;;;;;;16.00;83.50;;;;;;5074469;28;20003;-33
2023/05/08 01:52:13;;;;;;;;;;;16.00;83.50;;;;;;5074586;28;19919;-35
2023/05/08 01:54:41;;;;;;;;;;;15.90;83.40;;;;;;5074366;28;19912;-33
2023/05/08 01:57:08;;;;;;;;;;;15.90;83.50;;;;;;5074490;28;19940;-33
2023/05/08 01:59:34;;;;;;;;;;;15.90;83.60;;;;;;5074366;28;20003;-32
2023/05/08 02:02:00;;;;;;;;;;;15.90;83.60;;;;;;5074273;28;19948;-33
2023/05/08 02:04:27;;;;;;;;;;;15.80;83.60;;;;;;5074196;28;19936;-33
2023/05/08 02:06:54;;;;;;;;;;;15.80;83.60;;;;;;5074253;28;19958;-33
2023/05/08 02:09:21;;;;;;;;;;;15.80;83.60;;;;;;5073732;28;19909;-34
2023/05/08 02:11:48;;;;;;;;;;;15.80;83.60;;;;;;5074035;28;19912;-34
2023/05/08 02:14:14;;;;;;;;;;;15.80;83.60;;;;;;5072689;28;19970;-34
2023/05/08 02:16:40;;;;;;;;;;;15.70;83.60;;;;;;5074112;28;19908;-34
2023/05/08 02:19:07;;;;;;;;;;;15.70;83.50;;;;;;5074088;28;20272;-33
2023/05/08 02:21:33;;;;;;;;;;;15.70;83.60;;;;;;5073872;28;19909;-34
2023/05/08 02:23:59;;;;;;;;;;;15.60;83.50;;;;;;5073869;28;20007;-34
2023/05/08 02:26:25;;;;;;;;;;;15.70;83.60;;;;;;5073869;28;19956;-34
2023/05/08 02:28:52;;;;;;;;;;;15.60;83.50;;;;;;5073869;28;20486;-34
2023/05/08 02:31:18;;;;;;;;;;;15.60;83.50;;;;;;5073654;28;20390;-33
2023/05/08 02:33:44;;;;;;;;;;;15.60;84.10;;;;;;5073778;28;19915;-32
2023/05/08 02:36:12;;;;;;;;;;;15.60;83.50;;;;;;5072621;28;19909;-34
2023/05/08 02:38:40;;;;;;;;;;;15.60;83.60;;;;;;5073571;28;19908;-33
2023/05/08 02:41:06;;;;;;;;;;;15.60;83.60;;;;;;5073523;28;19915;-33
2023/05/08 02:43:32;;;;;;;;;;;15.60;83.60;;;;;;5073745;28;19912;-32
2023/05/08 02:45:57;;;;;;;;;;;15.50;83.60;;;;;;5073692;28;19962;-33
2023/05/08 02:48:35;;;;;;;;;;;15.50;83.70;;;;;;5073679;28;19913;-34
2023/05/08 02:51:20;;;;;;;;;;;15.50;83.70;;;;;;5073344;28;19915;-33
2023/05/08 02:53:49;;;;;;;;;;;15.50;83.80;;;;;;5071894;28;19952;-33
2023/05/08 02:56:25;;;;;;;;;;;15.50;83.80;;;;;;5073187;28;19940;-33
2023/05/08 02:59:11;;;;;;;;;;;15.40;83.70;;;;;;5073179;28;19908;-34
2023/05/08 03:01:48;;;;;;;;;;;15.40;83.70;;;;;;5072842;28;19952;-32
2023/05/08 03:04:21;;;;;;;;;;;15.40;83.60;;;;;;5073022;28;19978;-33
2023/05/08 03:06:47;;;;;;;;;;;15.50;83.60;;;;;;5072843;28;19940;-32
2023/05/08 03:09:20;;;;;;;;;;;15.50;83.70;;;;;;5071678;28;19908;-33
2023/05/08 03:11:48;;;;;;;;;;;15.50;83.70;;;;;;5072742;28;19916;-33
2023/05/08 03:14:15;;;;;;;;;;;15.40;83.60;;;;;;5072727;28;19916;-33
2023/05/08 03:16:43;;;;;;;;;;;15.40;83.60;;;;;;5072791;28;19912;-34
2023/05/08 03:19:21;;;;;;;;;;;15.40;83.60;;;;;;5072801;28;20414;-33
2023/05/08 03:21:48;;;;;;;;;;;15.40;83.60;;;;;;5072737;28;19915;-33
2023/05/08 03:24:14;;;;;;;;;;;15.40;83.60;;;;;;5072639;28;19921;-35
2023/05/08 03:26:41;;;;;;;;;;;15.40;83.70;;;;;;5072498;28;20015;-35
2023/05/08 03:29:06;;;;;;;;;;;15.30;83.70;;;;;;5072570;28;20031;-34
2023/05/08 03:31:32;;;;;;;;;;;15.30;83.70;;;;;;5072629;28;20429;-34
2023/05/08 03:33:58;;;;;;;;;;;15.30;83.80;;;;;;5072390;28;19909;-33
2023/05/08 03:36:25;;;;;;;;;;;15.20;83.80;;;;;;5072580;28;19909;-33
2023/05/08 03:38:51;;;;;;;;;;;15.20;83.80;;;;;;5072453;28;20015;-34
2023/05/08 03:41:16;;;;;;;;;;;15.20;83.80;;;;;;5071013;28;19948;-32
2023/05/08 03:43:42;;;;;;;;;;;15.20;84.30;;;;;;5071262;28;19908;-34
2023/05/08 03:46:08;;;;;;;;;;;15.10;83.80;;;;;;5072289;28;19908;-40
2023/05/08 03:48:34;;;;;;;;;;;15.10;83.90;;;;;;5071812;28;19908;-33
2023/05/08 03:51:00;;;;;;;;;;;15.10;83.90;;;;;;5072228;28;20264;-34
2023/05/08 03:53:27;;;;;;;;;;;15.10;84.00;;;;;;5072277;28;19913;-33
2023/05/08 03:55:52;;;;;;;;;;;15.00;83.90;;;;;;5072116;28;20368;-32
2023/05/08 03:58:24;;;;;;;;;;;15.00;83.90;;;;;;5072010;28;19934;-33
2023/05/08 04:01:07;;;;;;;;;;;15.00;84.00;;;;;;5072330;28;19912;-35
2023/05/08 04:03:33;;;;;;;;;;;15.00;84.00;;;;;;5072300;28;20280;-33
2023/05/08 04:06:01;;;;;;;;;;;15.00;84.00;;;;;;5072034;28;19915;-34
2023/05/08 04:08:28;;;;;;;;;;;15.00;83.90;;;;;;5071967;28;19908;-35
2023/05/08 04:11:08;;;;;;;;;;;15.00;83.90;;;;;;5071983;28;19912;-33
2023/05/08 04:13:37;;;;;;;;;;;15.00;84.00;;;;;;5071985;28;19952;-33
2023/05/08 04:16:03;;;;;;;;;;;15.00;83.90;;;;;;5071865;28;19924;-33
2023/05/08 04:18:29;;;;;;;;;;;15.00;83.90;;;;;;5071831;28;19947;-33
2023/05/08 04:20:55;;;;;;;;;;;14.90;83.90;;;;;;5071974;28;20311;-35
2023/05/08 04:23:21;;;;;;;;;;;15.00;83.90;;;;;;5071985;28;19908;-35
2023/05/08 04:25:48;;;;;;;;;;;14.90;83.80;;;;;;5071884;28;20249;-32
2023/05/08 04:28:14;;;;;;;;;;;14.90;83.80;;;;;;5071772;28;19931;-34
2023/05/08 04:30:40;;;;;;;;;;;14.90;83.80;;;;;;5072006;28;19908;-35
2023/05/08 04:33:06;;;;;;;;;;;14.90;83.90;;;;;;5071942;28;20423;-35
2023/05/08 04:35:32;;;;;;;;;;;14.90;83.80;;;;;;5071871;28;19923;-35
2023/05/08 04:37:58;;;;;;;;;;;15.00;83.80;;;;;;5072253;28;19962;-34
2023/05/08 04:40:24;;;;;;;;;;;15.00;83.80;;;;;;5071746;28;19920;-37
2023/05/08 04:42:49;;;;;;;;;;;15.00;83.70;;;;;;5072003;28;19977;-35
2023/05/08 04:45:15;;;;;;;;;;;15.00;83.60;;;;;;5071976;28;20389;-34
2023/05/08 04:47:40;;;;;;;;;;;15.00;83.60;;;;;;5071780;28;19987;-35
2023/05/08 04:50:06;;;;;;;;;;;15.00;83.60;;;;;;5071725;28;19909;-35
2023/05/08 04:52:31;;;;;;;;;;;15.00;83.60;;;;;;5071625;28;19919;-34
2023/05/08 04:54:57;;;;;;;;;;;15.10;83.60;;;;;;5071642;28;19912;-34
2023/05/08 04:57:22;;;;;;;;;;;15.00;83.60;;;;;;5071698;28;19919;-35
2023/05/08 04:59:48;;;;;;;;;;;15.10;84.20;;;;;;5072435;28;19944;-34
2023/05/08 05:02:14;;;;;;;;;;;15.10;83.60;;;;;;5075517;28;19909;-34
2023/05/08 05:04:39;;;;;;;;;;;15.10;83.60;;;;;;5075488;28;20224;-34
2023/05/08 05:07:05;;;;;;;;;;;15.10;83.50;;;;;;5075366;28;19915;-34
2023/05/08 05:09:33;;;;;;;;;;;15.10;83.60;;;;;;5075065;28;19908;-35
2023/05/08 05:11:59;;;;;;;;;;;15.10;83.50;;;;;;5075324;28;19997;-34
2023/05/08 05:14:24;;;;;;;;;;;15.10;83.50;;;;;;5075200;28;20335;-35
2023/05/08 05:16:50;;;;;;;;;;;15.10;83.40;;;;;;5075324;28;19908;-37
2023/05/08 05:19:15;;;;;;;;;;;15.10;83.40;;;;;;5075242;28;19908;-34
2023/05/08 05:21:41;;;;;;;;;;;15.10;83.40;;;;;;5075260;28;20364;-45
2023/05/08 05:24:06;;;;;;;;;;;15.10;83.30;;;;;;5075054;28;19909;-35
2023/05/08 05:26:32;;;;;;;;;;;15.10;83.30;;;;;;5074681;28;19920;-35
2023/05/08 05:28:57;;;;;;;;;;;15.20;83.30;;;;;;5075237;28;19959;-36
2023/05/08 05:31:24;;;;;;;;;;;15.20;83.20;;;;;;5074270;28;20173;-35
2023/05/08 05:33:50;;;;;;;;;;;15.30;83.20;;;;;;5075095;28;19963;-36
2023/05/08 05:36:16;;;;;;;;;;;15.30;83.10;;;;;;5074901;28;19909;-34
2023/05/08 05:38:42;;;;;;;;;;;15.30;83.10;;;;;;5075143;28;19913;-35
2023/05/08 05:41:07;;;;;;;;;;;15.30;83.10;;;;;;5074839;28;19958;-37
2023/05/08 05:43:33;;;;;;;;;;;15.30;83.00;;;;;;5074721;28;19908;-40
2023/05/08 05:46:05;;;;;;;;;;;15.40;83.00;;;;;;5074887;28;19958;-40
2023/05/08 05:48:30;;;;;;;;;;;15.40;82.90;;;;;;5074657;28;19908;-41
2023/05/08 05:50:56;;;;;;;;;;;15.40;82.80;;;;;;5074481;28;20360;-36
2023/05/08 05:53:22;;;;;;;;;;;15.50;82.80;;;;;;5074542;28;20379;-36
2023/05/08 05:55:47;;;;;;;;;;;15.50;82.70;;;;;;5074754;28;19912;-38
2023/05/08 05:58:13;;;;;;;;;;;15.60;82.70;;;;;;5074534;28;20372;-36
2023/05/08 06:00:38;;;;;;;;;;;15.60;82.60;;;;;;5074844;28;20023;-36
2023/05/08 06:03:04;;;;;;;;;;;15.70;82.60;;;;;;5074311;28;20280;-33
2023/05/08 06:05:29;;;;;;;;;;;15.70;82.50;;;;;;5074299;28;20007;-35
2023/05/08 06:07:56;;;;;;;;;;;15.90;82.50;;;;;;5073805;28;19908;-33
2023/05/08 06:10:21;;;;;;;;;;;15.90;82.20;;;;;;5073819;28;19908;-34
2023/05/08 06:12:47;;;;;;;;;;;16.00;82.20;;;;;;5073959;28;20309;-34
2023/05/08 06:15:13;;;;;;;;;;;16.10;82.00;;;;;;5073860;28;19948;-35
2023/05/08 06:17:39;;;;;;;;;;;16.20;81.90;;;;;;5074320;28;20352;-35
2023/05/08 06:20:05;;;;;;;;;;;16.30;81.70;;;;;;5074232;28;19940;-33
2023/05/08 06:22:31;;;;;;;;;;;16.40;81.60;;;;;;5073940;28;19909;-34
2023/05/08 06:24:56;;;;;;;;;;;16.50;81.40;;;;;;5073818;28;19909;-43
2023/05/08 06:27:21;;;;;;;;;;;16.60;81.30;;;;;;5073478;28;20372;-35
2023/05/08 06:29:50;;;;;;;;;;;16.70;81.30;;;;;;5073460;28;19913;-35
2023/05/08 06:32:16;;;;;;;;;;;16.70;81.20;;;;;;5073556;28;19921;-35
2023/05/08 06:34:41;;;;;;;;;;;16.80;81.10;;;;;;5073392;28;19924;-38
2023/05/08 06:37:07;;;;;;;;;;;16.90;80.90;;;;;;5073020;28;19919;-35
2023/05/08 06:39:32;;;;;;;;;;;16.90;80.90;;;;;;5072586;28;20402;-33
2023/05/08 06:41:58;;;;;;;;;;;16.90;80.90;;;;;;5072423;28;19912;-37
2023/05/08 06:44:23;;;;;;;;;;;16.90;80.80;;;;;;5073569;28;19983;-34
2023/05/08 06:46:49;;;;;;;;;;;16.90;80.90;;;;;;5071900;28;20281;-35
2023/05/08 06:49:14;;;;;;;;;;;16.90;81.00;;;;;;5073288;28;19913;-35
2023/05/08 06:51:40;;;;;;;;;;;16.90;81.00;;;;;;5073011;28;19920;-36
2023/05/08 06:54:07;;;;;;;;;;;16.90;81.10;;;;;;5073020;28;19956;-35
2023/05/08 06:56:33;;;;;;;;;;;16.90;81.10;;;;;;5073189;28;20334;-34
2023/05/08 06:58:58;;;;;;;;;;;16.90;81.10;;;;;;5073249;28;19952;-36
2023/05/08 07:01:24;;;;;;;;;;;16.90;81.10;;;;;;5073024;28;19913;-34
2023/05/08 07:03:49;;;;;;;;;;;16.90;81.10;;;;;;5072981;28;20242;-33
2023/05/08 07:06:15;;;;;;;;;;;16.90;81.10;;;;;;5072512;28;19959;-34
2023/05/08 07:08:40;;;;;;;;;;;17.00;81.10;;;;;;5073493;28;20329;-34
2023/05/08 07:11:08;;;;;;;;;;;17.00;81.00;;;;;;5072808;28;19912;-34
2023/05/08 07:13:34;;;;;;;;;;;17.10;81.00;;;;;;5073000;28;19920;-34
2023/05/08 07:16:00;;;;;;;;;;;17.10;80.90;;;;;;5072824;28;20245;-34
2023/05/08 07:18:25;;;;;;;;;;;17.20;80.90;;;;;;5072907;28;19991;-34
2023/05/08 07:20:51;;;;;;;;;;;17.30;80.80;;;;;;5072529;28;19912;-34
2023/05/08 07:23:17;;;;;;;;;;;17.30;80.80;;;;;;5072111;28;19952;-34
2023/05/08 07:25:42;;;;;;;;;;;17.40;80.70;;;;;;5072623;28;19935;-35
2023/05/08 07:28:08;;;;;;;;;;;17.50;80.60;;;;;;5072519;28;19971;-34
2023/05/08 07:30:33;;;;;;;;;;;17.70;80.50;;;;;;5072335;28;19912;-33
2023/05/08 07:32:59;;;;;;;;;;;17.80;80.20;;;;;;5072603;28;19919;-33
2023/05/08 07:35:24;;;;;;;;;;;17.90;80.00;;;;;;5072407;28;20378;-35
2023/05/08 07:37:50;;;;;;;;;;;18.10;79.80;;;;;;5072522;28;19956;-33
2023/05/08 07:40:15;;;;;;;;;;;18.30;79.70;;;;;;5070953;28;19912;-34
2023/05/08 07:42:42;;;;;;;;;;;18.40;79.50;;;;;;5072261;28;20061;-34
2023/05/08 07:45:08;;;;;;;;;;;18.50;79.30;;;;;;5072267;28;19912;-34
2023/05/08 07:47:34;;;;;;;;;;;18.50;79.20;;;;;;5072051;28;19913;-38
2023/05/08 07:49:59;;;;;;;;;;;18.60;79.10;;;;;;5072291;28;19913;-34
2023/05/08 07:52:25;;;;;;;;;;;18.60;79.10;;;;;;5071982;28;20390;-35
2023/05/08 07:54:51;;;;;;;;;;;18.70;79.10;;;;;;5071816;28;19916;-35
2023/05/08 07:57:16;;;;;;;;;;;18.70;79.10;;;;;;5072327;28;19954;-35
2023/05/08 07:59:41;;;;;;;;;;;18.80;79.10;;;;;;5071858;28;19920;-34
2023/05/08 08:02:07;;;;;;;;;;;18.80;79.00;;;;;;5072013;28;19958;-34
2023/05/08 08:04:32;;;;;;;;;;;18.90;78.90;;;;;;5072150;28;20295;-36
2023/05/08 08:06:58;;;;;;;;;;;19.00;78.90;;;;;;5071942;28;20011;-32
2023/05/08 08:09:23;;;;;;;;;;;19.00;78.80;;;;;;5072056;28;20417;-36
2023/05/08 08:11:49;;;;;;;;;;;19.00;78.70;;;;;;5071844;28;19920;-35
2023/05/08 08:14:15;;;;;;;;;;;19.10;78.80;;;;;;5071586;28;19912;-37
2023/05/08 08:16:41;;;;;;;;;;;19.10;78.70;;;;;;5071893;28;19951;-33
2023/05/08 08:19:07;;;;;;;;;;;19.20;78.80;;;;;;5071787;28;19919;-36
2023/05/08 08:21:32;;;;;;;;;;;19.20;78.70;;;;;;5071736;28;19913;-36
2023/05/08 08:23:58;;;;;;;;;;;19.30;78.50;;;;;;5071816;28;19973;-36
2023/05/08 08:26:24;;;;;;;;;;;19.40;78.60;;;;;;5071734;28;20451;-37
2023/05/08 08:28:50;;;;;;;;;;;19.40;78.60;;;;;;5071984;28;19934;-34
2023/05/08 08:31:16;;;;;;;;;;;19.40;78.60;;;;;;5072036;28;20003;-44
2023/05/08 08:33:41;;;;;;;;;;;19.40;78.60;;;;;;5071394;28;19974;-35
2023/05/08 08:36:13;;;;;;;;;;;19.40;78.50;;;;;;5075799;28;20372;-36
2023/05/08 08:38:39;;;;;;;;;;;19.40;78.50;;;;;;5075967;28;19916;-37
2023/05/08 08:41:04;;;;;;;;;;;19.40;78.40;;;;;;5075746;28;19962;-39
2023/05/08 08:43:30;;;;;;;;;;;19.50;78.40;;;;;;5075644;28;20007;-41
2023/05/08 08:45:58;;;;;;;;;;;19.50;78.40;;;;;;5075698;28;20261;-37
2023/05/08 08:48:26;;;;;;;;;;;19.50;78.40;;;;;;5074437;28;19916;-38
2023/05/08 08:50:55;;;;;;;;;;;19.50;78.50;;;;;;5075652;28;20003;-40
2023/05/08 08:53:24;;;;;;;;;;;19.40;78.40;;;;;;5075480;28;20011;-40
2023/05/08 08:55:52;;;;;;;;;;;19.50;78.50;;;;;;5075476;28;19924;-37
2023/05/08 08:58:42;;;;;;;;;;;19.50;78.40;;;;;;5075425;28;19965;-37
2023/05/08 09:01:08;;;;;;;;;;;19.70;78.20;;;;;;5075440;28;19920;-41
2023/05/08 09:03:34;;;;;;;;;;;19.80;78.00;;;;;;5075353;28;20287;-40
2023/05/08 09:06:02;;;;;;;;;;;19.90;77.80;;;;;;5075463;28;19919;-37
2023/05/08 09:08:28;;;;;;;;;;;20.00;77.80;;;;;;5075341;28;19954;-45
2023/05/08 09:10:54;;;;;;;;;;;20.00;77.80;;;;;;5075444;28;20004;-37
2023/05/08 09:13:20;;;;;;;;;;;20.00;77.90;;;;;;5075041;28;19912;-48
2023/05/08 09:15:46;;;;;;;;;;;20.00;77.90;;;;;;5074956;28;19923;-36
2023/05/08 09:18:11;;;;;;;;;;;19.90;77.90;;;;;;5075050;28;19912;-38
2023/05/08 09:20:39;;;;;;;;;;;20.00;77.90;;;;;;5075296;28;20326;-36
2023/05/08 09:23:05;;;;;;;;;;;20.00;77.90;;;;;;5075204;28;20367;-36
2023/05/08 09:25:43;;;;;;;;;;;20.10;77.90;;;;;;5074919;28;19999;-38
2023/05/08 09:28:19;;;;;;;;;;;20.10;77.70;;;;;;5074569;28;19990;-43
2023/05/08 09:31:02;;;;;;;;;;;20.20;77.60;;;;;;5074850;28;19958;-36
2023/05/08 09:33:28;;;;;;;;;;;20.20;77.60;;;;;;5074864;28;20313;-39
2023/05/08 09:35:54;;;;;;;;;;;20.30;77.50;;;;;;5074770;28;19963;-37
2023/05/08 09:38:34;;;;;;;;;;;20.30;77.30;;;;;;5075044;28;19912;-43
2023/05/08 09:41:06;;;;;;;;;;;20.30;77.30;;;;;;5075134;28;20362;-41
2023/05/08 09:43:32;;;;;;;;;;;20.40;77.30;;;;;;5074875;28;20291;-39
2023/05/08 09:45:57;;;;;;;;;;;20.40;77.30;;;;;;5074441;28;19913;-38
2023/05/08 09:48:44;;;;;;;;;;;20.30;77.30;;;;;;5074412;28;20342;-37
2023/05/08 09:51:10;;;;;;;;;;;20.30;77.90;;;;;;5074669;28;19920;-34
2023/05/08 09:53:36;;;;;;;;;;;20.30;76.80;;;;;;5074414;28;20311;-37
2023/05/08 09:56:01;;;;;;;;;;;20.30;76.90;;;;;;5074306;28;19925;-44
2023/05/08 09:58:36;;;;;;;;;;;20.30;76.90;;;;;;5074241;28;19917;-35
2023/05/08 10:01:02;;;;;;;;;;;20.40;77.00;;;;;;5075072;28;19912;-37
2023/05/08 10:03:45;;;;;;;;;;;20.40;76.70;;;;;;5074290;28;20432;-36
2023/05/08 10:06:11;;;;;;;;;;;20.50;76.40;;;;;;5074206;28;19938;-36
2023/05/08 10:08:36;;;;;;;;;;;20.70;76.20;;;;;;5074433;28;20003;-38
2023/05/08 10:11:17;;;;;;;;;;;20.80;76.10;;;;;;5074592;28;19952;-47
2023/05/08 10:13:44;;;;;;;;;;;21.00;76.00;;;;;;5074173;28;19920;-40
2023/05/08 10:16:19;;;;;;;;;;;21.20;75.50;;;;;;5074108;28;19916;-36
2023/05/08 10:18:47;;;;;;;;;;;21.30;75.30;;;;;;5074144;28;19916;-37
2023/05/08 10:21:14;;;;;;;;;;;21.40;75.20;;;;;;5074392;28;19913;-36
2023/05/08 10:23:41;;;;;;;;;;;21.50;75.00;;;;;;5073938;28;19967;-34
2023/05/08 10:26:10;;;;;;;;;;;21.70;75.00;;;;;;5074202;28;20003;-36
2023/05/08 10:28:41;;;;;;;;;;;21.80;74.60;;;;;;5073973;28;19927;-38
2023/05/08 10:31:08;;;;;;;;;;;21.90;74.60;;;;;;5073560;28;19912;-36
2023/05/08 10:33:34;;;;;;;;;;;22.00;74.40;;;;;;5073797;28;20342;-37
2023/05/08 10:36:00;;;;;;;;;;;22.10;74.00;;;;;;5073581;28;20364;-37
2023/05/08 10:38:25;;;;;;;;;;;22.20;73.40;;;;;;5073808;28;19920;-37
2023/05/08 10:40:56;;;;;;;;;;;22.40;73.40;;;;;;5073525;28;19913;-36
2023/05/08 10:43:25;;;;;;;;;;;22.50;73.10;;;;;;5073493;28;19925;-37
2023/05/08 10:45:54;;;;;;;;;;;22.60;73.00;;;;;;5073871;28;19913;-36
2023/05/08 10:48:27;;;;;;;;;;;22.60;73.00;;;;;;5073535;28;20368;-36
2023/05/08 10:50:59;;;;;;;;;;;22.50;71.50;;;;;;5073535;28;19962;-36
2023/05/08 10:53:25;;;;;;;;;;;22.30;72.00;;;;;;5073122;28;19955;-38
2023/05/08 10:55:51;;;;;;;;;;;22.20;72.60;;;;;;5071885;28;19952;-37
2023/05/08 10:58:23;;;;;;;;;;;22.00;72.90;;;;;;5072108;28;19913;-37
2023/05/08 11:00:51;;;;;;;;;;;21.90;73.20;;;;;;5073354;28;19916;-37
2023/05/08 11:03:17;;;;;;;;;;;21.60;73.60;;;;;;5073257;28;19912;-37
2023/05/08 11:05:46;;;;;;;;;;;21.40;73.80;;;;;;5073202;28;19912;-37
2023/05/08 11:08:16;;;;;;;;;;;21.20;74.20;;;;;;5073169;28;20287;-37
2023/05/08 11:10:43;;;;;;;;;;;20.90;75.30;;;;;;5072593;28;19913;-36
2023/05/08 11:13:10;;;;;;;;;;;20.70;75.20;;;;;;5073152;28;20011;-37
2023/05/08 11:15:36;;;;;;;;;;;20.60;75.80;;;;;;5072791;28;19940;-37
2023/05/08 11:18:05;;;;;;;;;;;20.50;76.10;;;;;;5072872;28;20340;-36
2023/05/08 11:20:37;;;;;;;;;;;20.40;76.50;;;;;;5072503;28;19963;-38
2023/05/08 11:23:20;;;;;;;;;;;20.30;76.80;;;;;;5073224;28;20379;-38
2023/05/08 11:25:46;;;;;;;;;;;20.20;77.10;;;;;;5072657;28;19913;-38
2023/05/08 11:28:12;;;;;;;;;;;20.10;77.30;;;;;;5072439;28;20098;-36
2023/05/08 11:30:38;;;;;;;;;;;20.10;77.40;;;;;;5072833;28;19912;-37
2023/05/08 11:33:03;;;;;;;;;;;20.10;77.60;;;;;;5072864;28;20271;-43
2023/05/08 11:36:04;;;;;;;;;;;20.20;77.70;;;;;;5072583;28;20025;-38
2023/05/08 11:38:34;;;;;;;;;;;20.20;77.80;;;;;;5069411;28;19920;-37
2023/05/08 11:41:00;;;;;;;;;;;20.30;77.70;;;;;;5072218;28;19919;-37
2023/05/08 11:43:32;;;;;;;;;;;20.40;77.60;;;;;;5072660;28;19912;-37
2023/05/08 11:46:12;;;;;;;;;;;20.50;77.50;;;;;;5072360;28;19912;-36
2023/05/08 11:48:38;;;;;;;;;;;20.60;77.40;;;;;;5072082;28;19912;-37
2023/05/08 11:51:04;;;;;;;;;;;20.80;77.40;;;;;;5072336;28;19922;-36
2023/05/08 11:53:30;;;;;;;;;;;20.80;77.20;;;;;;5072173;28;20015;-37
2023/05/08 11:55:56;;;;;;;;;;;20.90;77.10;;;;;;5072581;28;19962;-37
2023/05/08 11:58:21;;;;;;;;;;;20.90;77.10;;;;;;5072460;28;19916;-38
2023/05/08 12:00:47;;;;;;;;;;;21.00;77.20;;;;;;5072525;28;19919;-36
2023/05/08 12:03:13;;;;;;;;;;;21.10;77.10;;;;;;5072474;28;20424;-36
2023/05/08 12:05:39;;;;;;;;;;;21.20;77.00;;;;;;5072422;28;19918;-37
2023/05/08 12:08:05;;;;;;;;;;;21.30;77.00;;;;;;5072065;28;19912;-37
2023/05/08 12:10:31;;;;;;;;;;;21.40;77.00;;;;;;5071435;28;19974;-37
2023/05/08 12:12:56;;;;;;;;;;;21.40;76.90;;;;;;5071591;28;19913;-37
2023/05/08 12:15:22;;;;;;;;;;;21.50;76.80;;;;;;5071995;28;19916;-37
2023/05/08 12:17:47;;;;;;;;;;;21.60;76.60;;;;;;5071873;28;19912;-36
2023/05/08 12:20:14;;;;;;;;;;;21.70;76.50;;;;;;5071549;28;19917;-36
2023/05/08 12:22:40;;;;;;;;;;;21.80;76.40;;;;;;5072097;28;19970;-37
2023/05/08 12:25:06;;;;;;;;;;;21.90;76.30;;;;;;5072469;28;19916;-37
2023/05/08 12:27:32;;;;;;;;;;;22.00;76.20;;;;;;5071719;28;20019;-36
2023/05/08 12:29:57;;;;;;;;;;;22.00;76.10;;;;;;5070593;28;19962;-34
2023/05/08 12:32:23;;;;;;;;;;;22.00;76.10;;;;;;5071857;28;19917;-37
2023/05/08 12:34:49;;;;;;;;;;;22.00;76.20;;;;;;5071198;28;19917;-35
2023/05/08 12:37:26;;;;;;;;;;;21.90;76.20;;;;;;5070599;28;19966;-36
2023/05/08 12:39:52;;;;;;;;;;;21.90;76.30;;;;;;5071641;28;19978;-36
2023/05/08 12:42:17;;;;;;;;;;;21.80;76.50;;;;;;5071785;28;19916;-36
2023/05/08 12:44:49;;;;;;;;;;;21.70;76.60;;;;;;5071598;28;19970;-36
2023/05/08 12:47:14;;;;;;;;;;;21.70;76.70;;;;;;5071800;28;19913;-37
2023/05/08 12:49:39;;;;;;;;;;;21.60;76.70;;;;;;5071960;28;20009;-34
2023/05/08 12:52:06;;;;;;;;;;;21.60;76.70;;;;;;5071599;28;19912;-38
2023/05/08 12:54:33;;;;;;;;;;;21.60;76.80;;;;;;5071432;28;20265;-37
2023/05/08 12:56:58;;;;;;;;;;;21.70;76.80;;;;;;5071550;28;20003;-36
2023/05/08 12:59:33;;;;;;;;;;;21.70;76.80;;;;;;5071530;28;19997;-37
2023/05/08 13:01:58;;;;;;;;;;;21.70;76.70;;;;;;5071747;28;20245;-36
2023/05/08 13:04:24;;;;;;;;;;;21.80;76.60;;;;;;5071467;28;19919;-40
2023/05/08 13:06:53;;;;;;;;;;;21.90;76.50;;;;;;5071756;28;20006;-37
2023/05/08 13:09:18;;;;;;;;;;;22.00;76.30;;;;;;5071525;28;19919;-38
2023/05/08 13:11:44;;;;;;;;;;;22.10;76.10;;;;;;5069985;28;19913;-35
2023/05/08 13:14:09;;;;;;;;;;;22.20;75.90;;;;;;5071638;28;19912;-35
2023/05/08 13:16:42;;;;;;;;;;;22.30;75.80;;;;;;5071430;28;19958;-38
2023/05/08 13:19:08;;;;;;;;;;;22.40;75.80;;;;;;5071519;28;19913;-37
2023/05/08 13:21:33;;;;;;;;;;;22.40;75.70;;;;;;5073243;28;19927;-38
2023/05/08 13:24:00;;;;;;;;;;;22.40;75.70;;;;;;5074909;28;19920;-37
2023/05/08 13:26:25;;;;;;;;;;;22.40;75.80;;;;;;5075239;28;19919;-40
2023/05/08 13:28:51;;;;;;;;;;;22.30;76.40;;;;;;5074884;28;20364;-37
2023/05/08 13:31:16;;;;;;;;;;;22.30;75.80;;;;;;5075276;28;19912;-39
2023/05/08 13:33:42;;;;;;;;;;;22.30;75.80;;;;;;5074779;28;20010;-36
2023/05/08 13:36:07;;;;;;;;;;;22.40;75.70;;;;;;5074986;28;20382;-38
2023/05/08 13:38:36;;;;;;;;;;;22.40;75.70;;;;;;5074627;28;19917;-36
2023/05/08 13:41:01;;;;;;;;;;;22.50;75.70;;;;;;5074679;28;19961;-37
2023/05/08 13:43:27;;;;;;;;;;;22.50;75.60;;;;;;5074997;28;20322;-39
2023/05/08 13:45:52;;;;;;;;;;;22.50;75.50;;;;;;5074811;28;20544;-38
2023/05/08 13:48:18;;;;;;;;;;;22.60;75.50;;;;;;5074580;28;19924;-41
2023/05/08 13:50:44;;;;;;;;;;;22.70;75.50;;;;;;5074390;28;20387;-37
2023/05/08 13:53:09;;;;;;;;;;;22.70;75.30;;;;;;5074398;28;19913;-37
2023/05/08 13:55:35;;;;;;;;;;;22.80;75.20;;;;;;5074334;28;19916;-37
2023/05/08 13:58:01;;;;;;;;;;;22.90;75.00;;;;;;5074465;28;19930;-37
2023/05/08 14:00:26;;;;;;;;;;;23.00;74.60;;;;;;5074273;28;20348;-38
2023/05/08 14:02:52;;;;;;;;;;;23.10;74.10;;;;;;5074103;28;19913;-37
2023/05/08 14:05:17;;;;;;;;;;;23.30;74.10;;;;;;5074333;28;20011;-40
2023/05/08 14:07:43;;;;;;;;;;;23.60;73.80;;;;;;5074259;28;20429;-37
2023/05/08 14:10:09;;;;;;;;;;;23.80;73.40;;;;;;5074221;28;19914;-35
2023/05/08 14:12:35;;;;;;;;;;;24.10;73.00;;;;;;5074137;28;19974;-38
2023/05/08 14:15:01;;;;;;;;;;;24.20;72.80;;;;;;5072512;28;19920;-37
2023/05/08 14:17:26;;;;;;;;;;;24.30;72.60;;;;;;5074119;28;19912;-39